Parks, Arizona
Current Conditions -  °F | °C
As of 2:57 PM on Tuesday 21 Oct 2014 (Local Time) from KFLG Reporting Station
Clear Clear  
Wind Chill: 64°   Ceiling: Unl
Heat Index: 64°   Visibility: 10mi
Dew Point: 35°   Wind: 10mph
Humidity: 34%   Direction: 190°S
Pressure: 30.1"   Gusts: 18mph
Location:  35.26°N, 111.95°W
Report Text: KFLG 212157Z 19009G16KT 10SM CLR 18/02 A3010 RMK AO2 SLP125 T01780017
Loading
Personal Weather Stations






























Interactive Weather Map New forecast layout! Learn more

10-Day Weather Forecast

Advertisements
Track Severe Weather on mobile